Time;durP1;ratioP1;P1;durP2;ratioP2;P2;SDS_P1;SDS_P2;PMS_P1;PMS_P2;Temp;Humidity;BMP_temperature;BMP_pressure;BME280_temperature;BME280_humidity;BME280_pressure;Samples;Min_cycle;Max_cycle;Signal;HPM_P1;HPM_P2
2023/03/21 00:02:27;;;;;;;11.57;6.25;;;;;;;11.50;51.60;63178.78;5026459;28;20410;-78
2023/03/21 00:04:54;;;;;;;8.75;5.88;;;;;;;11.49;51.15;63180.28;5028230;28;20203;-77
2023/03/21 00:07:22;;;;;;;12.85;6.03;;;;;;;11.51;51.10;63187.97;5026846;28;20293;-77
2023/03/21 00:09:49;;;;;;;13.27;5.85;;;;;;;11.51;50.87;63182.88;5026266;28;20202;-78
2023/03/21 00:12:16;;;;;;;10.32;6.15;;;;;;;11.55;51.32;63187.03;5025534;28;20540;-78
2023/03/21 00:14:43;;;;;;;8.48;6.03;;;;;;;11.48;51.71;63184.34;5025175;28;20260;-78
2023/03/21 00:17:10;;;;;;;8.43;5.93;;;;;;;11.48;51.85;63184.88;5025590;28;20230;-77
2023/03/21 00:19:40;;;;;;;10.32;8.63;;;;;;;11.47;52.26;63180.75;5026572;28;20258;-78
2023/03/21 00:22:07;;;;;;;13.82;7.70;;;;;;;11.45;52.26;63176.13;5030172;28;20282;-77
2023/03/21 00:24:33;;;;;;;10.85;7.47;;;;;;;11.43;52.42;63179.69;5018905;28;20207;-77
2023/03/21 00:27:00;;;;;;;12.57;6.93;;;;;;;11.39;52.86;63167.38;5006494;28;20273;-78
2023/03/21 00:29:27;;;;;;;15.05;7.93;;;;;;;11.34;53.13;63164.75;5023713;28;20266;-78
2023/03/21 00:31:54;;;;;;;11.77;7.18;;;;;;;11.25;53.46;63155.44;5024079;28;20281;-79
2023/03/21 00:34:21;;;;;;;12.07;7.10;;;;;;;11.19;53.65;63151.75;5024888;28;20226;-78
2023/03/21 00:36:50;;;;;;;12.05;7.20;;;;;;;11.15;53.69;63152.72;5028034;28;20222;-78
2023/03/21 00:39:17;;;;;;;13.05;7.70;;;;;;;11.11;53.74;63143.47;5025117;28;20210;-77
2023/03/21 00:41:44;;;;;;;9.15;6.75;;;;;;;11.04;53.98;63139.31;5023858;28;20255;-78
2023/03/21 00:44:14;;;;;;;10.63;8.73;;;;;;;11.03;54.41;63133.16;5026088;28;20255;-77
2023/03/21 00:46:42;;;;;;;14.02;9.40;;;;;;;10.98;54.74;63127.47;5025348;28;20206;-77
2023/03/21 00:49:08;;;;;;;11.57;7.90;;;;;;;10.91;55.07;63130.41;5025601;28;20210;-77
2023/03/21 00:51:36;;;;;;;12.27;7.32;;;;;;;10.78;55.23;63109.31;5023917;28;20285;-78
2023/03/21 00:54:05;;;;;;;13.48;7.25;;;;;;;10.78;54.93;63109.31;5026222;28;20511;-77
2023/03/21 00:56:32;;;;;;;8.75;6.78;;;;;;;10.73;54.77;63104.13;5027852;28;20626;-77
2023/03/21 00:58:59;;;;;;;7.68;5.88;;;;;;;10.72;55.32;63106.16;5022047;28;20238;-77
2023/03/21 01:01:30;;;;;;;9.00;7.35;;;;;;;10.68;55.24;63096.41;5023497;28;20539;-78
2023/03/21 01:04:02;;;;;;;11.00;7.22;;;;;;;10.59;55.39;63089.66;5025313;28;20271;-77
2023/03/21 01:06:29;;;;;;;8.65;7.38;;;;;;;10.53;55.31;63083.94;5022915;28;20222;-78
2023/03/21 01:08:56;;;;;;;7.68;4.65;;;;;;;10.48;54.66;63079.28;5023827;28;20520;-77
2023/03/21 01:11:28;;;;;;;6.78;4.10;;;;;;;10.41;54.03;63072.06;5024854;28;20235;-77
2023/03/21 01:13:55;;;;;;;5.38;4.88;;;;;;;10.36;53.93;63064.34;5027917;28;20214;-77
2023/03/21 01:16:22;;;;;;;5.32;3.97;;;;;;;10.34;54.68;63066.81;5025459;28;20272;-77
2023/03/21 01:18:50;;;;;;;4.10;3.70;;;;;;;10.28;53.69;63053.53;5023010;28;20241;-78
2023/03/21 01:21:17;;;;;;;5.45;3.92;;;;;;;10.19;54.21;63049.28;5027342;28;20198;-78
2023/03/21 01:23:45;;;;;;;7.63;3.83;;;;;;;10.13;54.70;63040.53;5020403;28;20372;-77
2023/03/21 01:26:12;;;;;;;8.10;4.22;;;;;;;10.11;54.40;63043.53;5025425;28;20244;-78
2023/03/21 01:28:42;;;;;;;7.20;5.07;;;;;;;10.13;54.47;63050.19;5022749;28;20206;-77
2023/03/21 01:31:12;;;;;;;3.83;3.50;;;;;;;10.15;55.43;63047.16;5024235;28;20249;-78
2023/03/21 01:33:39;;;;;;;5.43;4.65;;;;;;;10.05;54.91;63037.31;5024811;28;20269;-78
2023/03/21 01:36:07;;;;;;;7.53;4.10;;;;;;;10.06;54.58;63035.31;5023177;28;20228;-77
2023/03/21 01:38:34;;;;;;;10.75;4.28;;;;;;;10.02;54.32;63031.69;5031115;28;20238;-77
2023/03/21 01:41:02;;;;;;;5.32;4.22;;;;;;;10.04;54.82;63036.28;5030622;28;20491;-77
2023/03/21 01:43:30;;;;;;;7.93;5.30;;;;;;;10.03;55.97;63032.72;5024498;28;20393;-79
2023/03/21 01:46:25;;;;;;;8.13;6.85;;;;;;;10.08;56.86;63037.91;5015363;28;20208;-79
2023/03/21 01:48:57;;;;;;;9.45;6.90;;;;;;;10.09;57.14;63041.50;5019174;28;20207;-79
2023/03/21 01:51:25;;;;;;;6.72;6.00;;;;;;;10.18;56.74;63048.25;5043664;28;20248;-79
2023/03/21 01:53:52;;;;;;;14.05;6.00;;;;;;;10.18;56.95;63047.75;5041963;28;20371;-78
2023/03/21 01:56:24;;;;;;;8.52;5.57;;;;;;;10.18;57.08;63047.75;5026247;28;20214;-79
2023/03/21 01:58:55;;;;;;;8.55;6.38;;;;;;;10.16;57.15;63050.75;5036742;28;20229;-78
2023/03/21 02:01:23;;;;;;;5.68;5.13;;;;;;;10.10;57.18;63039.97;5025849;28;20380;-78
2023/03/21 02:03:52;;;;;;;6.32;4.20;;;;;;;10.00;57.87;63027.06;5015780;28;20207;-78
2023/03/21 02:06:35;;;;;;;7.32;4.07;;;;;;;9.97;56.75;63026.50;5011763;28;20235;-78
2023/03/21 02:09:07;;;;;;;6.03;3.95;;;;;;;9.96;56.88;63024.94;5035437;28;20441;-78
2023/03/21 02:11:37;;;;;;;8.25;5.22;;;;;;;9.92;57.06;63020.81;5045324;28;20217;-78
2023/03/21 02:14:04;;;;;;;5.88;4.05;;;;;;;9.85;57.97;63009.00;5023878;28;20543;-79
2023/03/21 02:16:46;;;;;;;5.88;4.80;;;;;;;9.76;57.11;63009.88;5025434;28;20280;-79
2023/03/21 02:19:54;;;;;;;3.95;3.63;;;;;;;9.69;58.02;62997.03;5035461;28;20230;-78
2023/03/21 02:23:06;;;;;;;7.38;4.20;;;;;;;9.68;57.38;62993.47;5017806;28;20270;-79
2023/03/21 02:26:09;;;;;;;6.03;3.53;;;;;;;9.59;57.74;62986.69;5010440;28;20210;-78
2023/03/21 02:28:40;;;;;;;10.95;4.70;;;;;;;9.66;57.87;62994.44;5027219;28;20198;-78
2023/03/21 02:31:23;;;;;;;4.88;4.38;;;;;;;9.65;58.48;62990.88;5029933;28;20485;-80
2023/03/21 02:34:19;;;;;;;6.30;4.00;;;;;;;9.62;59.05;62989.78;5025401;28;20534;-77
2023/03/21 02:37:02;;;;;;;4.22;3.72;;;;;;;9.64;59.05;62992.38;5028706;28;20222;-79
2023/03/21 02:39:38;;;;;;;6.63;4.53;;;;;;;9.66;58.84;62993.94;5022979;28;20230;-78
2023/03/21 02:42:09;;;;;;;5.68;3.70;;;;;;;9.66;58.70;62997.00;5021988;28;20242;-78
2023/03/21 02:44:44;;;;;;;5.25;4.07;;;;;;;9.69;58.23;62997.03;5025252;28;20478;-79
2023/03/21 02:47:14;;;;;;;4.38;3.85;;;;;;;9.64;58.55;62989.31;5025069;28;20222;-79
2023/03/21 02:49:47;;;;;;;3.50;3.10;;;;;;;9.58;58.86;62983.63;5021558;28;20245;-78
2023/03/21 02:52:20;;;;;;;5.65;4.28;;;;;;;9.56;58.48;62986.63;5030873;28;20226;-78
2023/03/21 02:54:51;;;;;;;8.02;4.00;;;;;;;9.53;58.86;62983.00;5028467;28;20281;-79
2023/03/21 02:57:20;;;;;;;3.78;3.47;;;;;;;9.59;59.24;62989.22;5042084;28;20285;-79
2023/03/21 02:59:49;;;;;;;8.45;3.75;;;;;;;9.54;59.91;62984.06;5025904;28;20427;-77
2023/03/21 03:02:19;;;;;;;4.95;3.70;;;;;;;9.57;59.65;62984.63;5027853;28;20226;-79
2023/03/21 03:04:46;;;;;;;4.15;3.75;;;;;;;9.57;59.89;62985.13;5029312;28;20199;-78
2023/03/21 03:07:23;;;;;;;5.45;3.35;;;;;;;9.59;60.41;62984.66;5026639;28;20286;-78
2023/03/21 03:10:03;;;;;;;4.25;3.75;;;;;;;9.55;59.95;62985.09;5027947;28;20217;-77
2023/03/21 03:12:41;;;;;;;4.35;3.95;;;;;;;9.54;59.54;62982.03;5027180;28;20223;-77
2023/03/21 03:15:20;;;;;;;5.47;3.28;;;;;;;9.53;59.13;62981.00;5028412;28;20351;-77
2023/03/21 03:17:54;;;;;;;4.00;3.60;;;;;;;9.56;59.22;62983.59;5015807;28;20231;-78
2023/03/21 03:20:28;;;;;;;9.35;5.10;;;;;;;9.38;61.00;62962.94;5025683;28;20241;-77
2023/03/21 03:23:05;;;;;;;9.65;5.13;;;;;;;9.33;61.59;62965.41;5027492;28;20234;-77
2023/03/21 03:25:39;;;;;;;7.07;5.60;;;;;;;9.30;62.10;62959.78;5026365;28;20202;-78
2023/03/21 03:28:08;;;;;;;9.38;5.93;;;;;;;9.25;62.01;62952.03;5026874;28;20218;-77
2023/03/21 03:30:37;;;;;;;6.72;6.07;;;;;;;9.24;62.18;62954.06;5030688;28;20205;-78
2023/03/21 03:33:06;;;;;;;7.93;4.97;;;;;;;9.21;62.94;62945.38;5044284;28;20280;-77
2023/03/21 03:35:34;;;;;;;10.57;6.85;;;;;;;9.18;63.97;62945.31;5028250;28;20221;-79
2023/03/21 03:38:06;;;;;;;9.95;7.47;;;;;;;9.13;63.99;62937.63;5029400;28;20238;-78
2023/03/21 03:40:40;;;;;;;10.27;7.60;;;;;;;9.10;63.80;62936.53;5026095;28;20202;-77
2023/03/21 03:43:12;;;;;;;9.68;6.05;;;;;;;9.06;63.34;62932.91;5024757;28;20305;-77
2023/03/21 03:45:44;;;;;;;9.00;6.60;;;;;;;9.05;63.87;62931.91;5027376;28;20210;-78
2023/03/21 03:48:18;;;;;;;6.90;6.20;;;;;;;8.99;64.56;62923.16;5042732;28;20569;-78
2023/03/21 03:50:50;;;;;;;9.15;6.65;;;;;;;8.95;64.99;62918.50;5032373;28;20534;-78
2023/03/21 03:53:23;;;;;;;14.20;6.82;;;;;;;8.88;65.58;62918.88;5024660;28;20410;-79
2023/03/21 03:55:51;;;;;;;7.40;6.25;;;;;;;8.80;66.22;62905.53;5027077;28;20198;-79
2023/03/21 03:58:20;;;;;;;8.38;6.30;;;;;;;8.76;67.18;62904.47;5026683;28;20276;-77
2023/03/21 04:00:48;;;;;;;9.80;6.82;;;;;;;8.81;68.13;62909.63;5026253;28;20385;-77
2023/03/21 04:03:15;;;;;;;10.48;6.00;;;;;;;8.77;68.75;62905.50;5027387;28;20227;-78
2023/03/21 04:05:45;;;;;;;7.55;6.30;;;;;;;8.72;69.26;62894.72;5027173;28;20245;-77
2023/03/21 04:08:13;;;;;;;9.48;6.60;;;;;;;8.74;69.84;62896.78;5025831;28;20270;-77
2023/03/21 04:10:41;;;;;;;10.70;6.32;;;;;;;8.72;69.99;62895.25;5030973;28;20209;-79
2023/03/21 04:13:09;;;;;;;8.88;6.72;;;;;;;8.74;70.07;62899.84;5028128;28;20215;-78
2023/03/21 04:15:37;;;;;;;9.00;6.13;;;;;;;8.73;70.34;62895.78;5025668;28;20214;-77
2023/03/21 04:18:03;;;;;;;9.68;6.03;;;;;;;8.67;70.35;62892.63;5029078;28;20527;-78
2023/03/21 04:20:31;;;;;;;5.20;4.70;;;;;;;8.76;67.60;62901.41;5025621;28;20249;-77
2023/03/21 04:22:58;;;;;;;9.80;5.13;;;;;;;8.81;67.05;62906.56;5026434;28;20231;-78
2023/03/21 04:25:27;;;;;;;8.27;4.90;;;;;;;8.72;67.27;62900.31;5024995;28;20273;-78
2023/03/21 04:27:55;;;;;;;5.95;4.97;;;;;;;8.67;67.36;62887.03;5029931;28;20421;-77
2023/03/21 04:30:23;;;;;;;5.35;4.88;;;;;;;8.50;68.87;62872.00;5025391;28;20237;-77
2023/03/21 04:32:52;;;;;;;6.50;4.40;;;;;;;8.55;67.24;62880.22;5025217;28;20231;-78
2023/03/21 04:35:21;;;;;;;4.50;3.95;;;;;;;8.55;67.05;62874.63;5037278;28;20256;-78
2023/03/21 04:37:48;;;;;;;7.20;4.50;;;;;;;8.49;66.99;62871.47;5031886;28;20223;-77
2023/03/21 04:40:17;;;;;;;4.88;4.35;;;;;;;8.49;67.02;62874.00;5025493;28;20520;-78
2023/03/21 04:42:45;;;;;;;4.25;3.88;;;;;;;8.50;67.05;62875.06;5006856;28;20223;-79
2023/03/21 04:45:13;;;;;;;5.80;4.07;;;;;;;8.51;66.81;62875.59;5024879;28;20202;-79
2023/03/21 04:47:41;;;;;;;5.47;3.63;;;;;;;8.56;66.34;62886.31;5022773;28;20230;-79
2023/03/21 04:50:09;;;;;;;5.40;4.25;;;;;;;8.58;65.93;62883.31;5023983;28;20205;-79
2023/03/21 04:52:37;;;;;;;7.38;4.68;;;;;;;8.66;65.86;62891.06;5033822;28;20352;-78
2023/03/21 04:55:08;;;;;;;4.43;4.03;;;;;;;8.71;65.44;62888.63;5042185;28;20225;-79
2023/03/21 04:57:36;;;;;;;4.93;4.53;;;;;;;8.82;65.66;62908.13;5026511;28;20225;-78
2023/03/21 05:00:08;;;;;;;5.57;4.93;;;;;;;8.89;65.49;62914.84;5023943;28;20233;-80
2023/03/21 05:02:36;;;;;;;8.30;4.75;;;;;;;8.90;65.39;62915.88;5026860;28;20230;-77
2023/03/21 05:05:03;;;;;;;9.35;4.97;;;;;;;9.05;64.53;62933.91;5025597;28;20221;-78
2023/03/21 05:07:31;;;;;;;8.30;4.80;;;;;;;9.09;64.57;62941.09;5036156;28;20218;-77
2023/03/21 05:09:58;;;;;;;6.65;4.75;;;;;;;9.17;64.10;62941.75;5026691;28;20562;-78
2023/03/21 05:12:26;;;;;;;6.63;4.90;;;;;;;9.20;64.15;62946.88;5029186;28;21414;-78
2023/03/21 05:14:53;;;;;;;4.47;3.72;;;;;;;9.26;63.35;62953.59;5028143;28;20241;-78
2023/03/21 05:17:22;;;;;;;5.13;3.97;;;;;;;9.35;63.31;62959.84;5029315;28;20297;-80
2023/03/21 05:19:51;;;;;;;3.83;3.53;;;;;;;9.45;62.91;62970.19;5028841;28;20226;-78
2023/03/21 05:22:19;;;;;;;3.55;3.22;;;;;;;9.50;63.29;62975.34;5027762;28;20294;-78
2023/03/21 05:24:49;;;;;;;4.03;3.45;;;;;;;9.57;63.25;62987.69;5024908;28;20195;-78
2023/03/21 05:27:32;;;;;;;4.63;4.18;;;;;;;9.63;63.06;62993.88;5023923;28;20226;-77
2023/03/21 05:29:59;;;;;;;5.78;4.68;;;;;;;9.69;62.68;63002.63;5027620;28;20483;-78
2023/03/21 05:32:27;;;;;;;4.63;4.10;;;;;;;9.77;62.89;63008.34;5024723;28;20225;-78
2023/03/21 05:34:55;;;;;;;6.70;4.53;;;;;;;9.81;62.80;63007.41;5032004;28;20289;-77
2023/03/21 05:37:22;;;;;;;7.07;5.18;;;;;;;9.89;62.55;63020.25;5012748;28;20293;-78
2023/03/21 05:39:49;;;;;;;10.20;5.70;;;;;;;10.02;62.77;63031.69;5021648;28;20254;-78
2023/03/21 05:42:17;;;;;;;7.60;5.50;;;;;;;10.10;62.80;63039.97;5023913;28;20225;-77
2023/03/21 05:44:44;;;;;;;7.40;5.80;;;;;;;10.20;62.55;63047.78;5023612;28;20202;-78
2023/03/21 05:47:11;;;;;;;11.98;6.28;;;;;;;10.29;62.19;63057.09;5023572;28;20265;-77
2023/03/21 05:49:38;;;;;;;10.70;6.13;;;;;;;10.44;61.75;63074.63;5023504;28;20241;-78
2023/03/21 05:52:07;;;;;;;8.70;6.72;;;;;;;10.58;61.66;63086.06;5023226;28;20230;-78
2023/03/21 05:54:34;;;;;;;9.95;6.53;;;;;;;10.75;60.95;63106.72;5023644;28;20203;-77
2023/03/21 05:57:02;;;;;;;16.13;8.90;;;;;;;10.88;60.77;63122.22;5026341;28;20222;-78
2023/03/21 05:59:28;;;;;;;11.73;8.10;;;;;;;11.06;59.57;63138.31;5025386;28;20256;-78
2023/03/21 06:01:55;;;;;;;15.15;8.43;;;;;;;11.17;59.12;63152.75;5020701;28;20215;-79
2023/03/21 06:04:22;;;;;;;21.73;8.60;;;;;;;11.33;58.46;63164.25;5020113;28;20213;-78
2023/03/21 06:06:50;;;;;;;10.15;7.53;;;;;;;11.41;59.11;63172.00;5024299;28;20218;-79
2023/03/21 06:09:19;;;;;;;12.38;7.68;;;;;;;11.48;59.25;63182.31;5031897;28;20510;-76
2023/03/21 06:11:48;;;;;;;9.43;6.50;;;;;;;11.57;59.25;63191.13;5030442;28;20276;-75
2023/03/21 06:14:15;;;;;;;13.77;7.47;;;;;;;11.72;59.24;63209.22;5041277;28;20226;-78
2023/03/21 06:16:42;;;;;;;9.60;6.93;;;;;;;11.90;60.00;63219.72;5020203;28;20226;-77
2023/03/21 06:19:10;;;;;;;9.73;6.72;;;;;;;11.97;59.54;63237.69;5024125;28;20230;-77
2023/03/21 06:21:36;;;;;;;13.63;7.10;;;;;;;12.15;58.58;63253.78;5023299;28;20313;-78
2023/03/21 06:24:03;;;;;;;9.25;6.68;;;;;;;12.30;57.58;63268.81;5023552;28;20199;-78
2023/03/21 06:26:32;;;;;;;10.43;6.70;;;;;;;12.35;57.32;63274.00;5020632;28;20230;-79
2023/03/21 06:28:59;;;;;;;10.77;6.68;;;;;;;12.55;57.15;63290.16;5028747;28;20190;-78
2023/03/21 06:31:26;;;;;;;9.98;6.90;;;;;;;12.66;57.71;63301.03;5028725;28;20234;-78
2023/03/21 06:33:53;;;;;;;9.73;6.40;;;;;;;12.64;57.98;63298.97;5031284;28;20423;-77
2023/03/21 06:36:21;;;;;;;10.15;9.18;;;;;;;12.83;57.16;63323.78;5028487;28;20226;-78
2023/03/21 06:38:48;;;;;;;15.00;11.00;;;;;;;12.80;56.22;63318.13;5027559;28;20194;-78
2023/03/21 06:41:15;;;;;;;11.90;9.65;;;;;;;13.08;56.03;63344.09;5026654;28;20285;-80
2023/03/21 06:43:44;;;;;;;9.80;7.63;;;;;;;13.26;55.23;63365.31;5028494;28;20230;-78
2023/03/21 06:46:11;;;;;;;16.40;7.13;;;;;;;13.31;55.01;63368.47;5028449;28;20213;-79
2023/03/21 06:48:43;;;;;;;17.08;8.13;;;;;;;13.46;53.15;63394.25;5028289;28;20202;-79
2023/03/21 06:51:11;;;;;;;13.20;7.57;;;;;;;13.28;52.51;63370.47;5029055;28;20269;-78
2023/03/21 06:53:40;;;;;;;15.63;7.65;;;;;;;13.10;53.71;63346.19;5028048;28;20195;-77
2023/03/21 06:56:08;;;;;;;15.43;6.40;;;;;;;13.22;53.10;63363.75;5026892;28;20441;-79
2023/03/21 06:58:35;;;;;;;14.55;8.27;;;;;;;12.89;53.94;63329.50;5008920;28;20199;-78
2023/03/21 07:01:04;;;;;;;15.63;8.43;;;;;;;13.17;54.70;63359.06;5009123;28;20238;-78
2023/03/21 07:03:31;;;;;;;19.20;9.52;;;;;;;13.18;54.99;63357.56;5008326;28;20203;-78
2023/03/21 07:05:59;;;;;;;28.83;10.80;;;;;;;13.23;54.87;63362.22;5014938;28;20612;-79
2023/03/21 07:08:25;;;;;;;29.33;9.93;;;;;;;13.16;54.70;63354.94;5028813;28;20205;-77
2023/03/21 07:10:56;;;;;;;23.58;9.82;;;;;;;13.13;54.94;63351.84;5028631;28;20488;-76
2023/03/21 07:13:23;;;;;;;29.88;10.35;;;;;;;13.10;54.59;63349.25;5036517;28;20225;-78
2023/03/21 07:15:50;;;;;;;17.35;9.00;;;;;;;12.80;55.50;63318.13;5031460;28;20518;-78
2023/03/21 07:18:19;;;;;;;19.35;9.25;;;;;;;12.94;54.95;63334.66;5020026;28;20234;-78
2023/03/21 07:20:49;;;;;;;18.50;8.57;;;;;;;12.90;54.15;63328.47;5019979;28;20252;-75
2023/03/21 07:23:16;;;;;;;16.42;9.13;;;;;;;12.97;54.23;63335.75;5026338;28;20230;-74
2023/03/21 07:25:44;;;;;;;22.88;8.57;;;;;;;12.85;54.49;63322.78;5025783;28;20210;-77
2023/03/21 07:28:10;;;;;;;17.17;9.65;;;;;;;12.99;54.92;63337.31;5027373;28;20229;-76
2023/03/21 07:30:37;;;;;;;14.15;8.52;;;;;;;13.32;54.12;63372.06;5028592;28;20416;-77
2023/03/21 07:33:06;;;;;;;20.40;9.45;;;;;;;13.59;53.34;63400.09;5024588;28;20222;-75
2023/03/21 07:35:36;;;;;;;20.10;9.52;;;;;;;13.55;53.43;63395.94;5026514;28;20208;-76
2023/03/21 07:38:02;;;;;;;23.30;10.18;;;;;;;13.59;52.99;63397.53;5017407;28;20225;-77
2023/03/21 07:40:29;;;;;;;20.80;9.98;;;;;;;13.60;52.89;63403.16;5018878;28;20249;-75
2023/03/21 07:42:56;;;;;;;24.40;9.65;;;;;;;13.67;52.70;63407.88;5020946;28;20346;-77
2023/03/21 07:45:24;;;;;;;13.88;8.70;;;;;;;13.79;52.40;63423.41;5017378;28;20222;-77
2023/03/21 07:47:51;;;;;;;13.95;9.52;;;;;;;13.94;52.39;63435.91;5016283;28;20242;-76
2023/03/21 07:50:18;;;;;;;11.07;9.13;;;;;;;14.21;51.08;63461.38;5019108;28;20257;-77
2023/03/21 07:52:46;;;;;;;16.15;10.90;;;;;;;14.63;50.26;63507.56;5016635;28;20241;-77
2023/03/21 07:55:13;;;;;;;21.10;10.18;;;;;;;14.65;49.64;63512.19;5020163;28;20198;-77
2023/03/21 07:57:40;;;;;;;19.65;10.07;;;;;;;14.38;50.11;63481.59;5020375;28;20218;-76
2023/03/21 08:00:09;;;;;;;17.08;9.82;;;;;;;14.39;50.42;63482.63;5028480;28;20226;-76
2023/03/21 08:02:36;;;;;;;14.23;9.88;;;;;;;13.85;50.90;63424.53;5026247;28;20234;-76
2023/03/21 08:05:03;;;;;;;18.58;9.85;;;;;;;13.54;51.37;63396.94;5026074;28;20206;-77
2023/03/21 08:07:31;;;;;;;23.77;10.25;;;;;;;13.44;52.86;63384.50;5010811;28;20230;-77
2023/03/21 08:10:00;;;;;;;21.23;10.20;;;;;;;13.35;52.65;63382.88;5005862;28;20242;-75
2023/03/21 08:12:26;;;;;;;17.98;9.85;;;;;;;13.21;53.45;63358.09;5006806;28;20246;-77
2023/03/21 08:14:53;;;;;;;23.35;10.45;;;;;;;13.42;52.63;63387.56;5007115;28;20273;-77
2023/03/21 08:17:20;;;;;;;17.60;10.07;;;;;;;13.83;52.06;63424.47;5026496;28;20245;-78
2023/03/21 08:19:48;;;;;;;15.88;9.55;;;;;;;13.83;51.31;63424.47;5021048;28;20238;-77
2023/03/21 08:22:14;;;;;;;18.90;9.00;;;;;;;13.94;50.99;63436.41;5025165;28;20222;-77
2023/03/21 08:24:41;;;;;;;13.30;8.57;;;;;;;13.93;50.25;63442.53;5028523;28;20230;-76
2023/03/21 08:27:09;;;;;;;14.55;9.50;;;;;;;13.93;51.14;63432.81;5027046;28;20237;-76
2023/03/21 08:29:41;;;;;;;18.52;8.82;;;;;;;14.30;50.22;63470.22;5023514;28;20202;-77
2023/03/21 08:32:08;;;;;;;19.15;8.85;;;;;;;14.48;49.33;63486.34;5022464;28;20319;-76
2023/03/21 08:34:35;;;;;;;20.38;9.80;;;;;;;14.86;48.32;63536.06;5025187;28;20214;-77
2023/03/21 08:37:03;;;;;;;16.73;9.35;;;;;;;15.21;47.31;63572.44;5025666;28;20399;-76
2023/03/21 08:39:29;;;;;;;19.88;9.82;;;;;;;15.33;46.56;63582.34;5018625;28;20214;-76
2023/03/21 08:41:56;;;;;;;20.65;7.80;;;;;;;15.31;47.26;63577.16;5026431;28;20222;-77
2023/03/21 08:44:25;;;;;;;18.45;9.00;;;;;;;15.43;46.65;63592.75;5027904;28;20248;-75
2023/03/21 08:46:53;;;;;;;12.27;8.88;;;;;;;14.91;47.37;63538.69;5022927;28;20534;-77
2023/03/21 08:49:19;;;;;;;11.93;9.00;;;;;;;15.05;47.44;63553.22;5022814;28;20205;-76
2023/03/21 08:51:46;;;;;;;13.73;8.25;;;;;;;15.33;47.10;63584.91;5024445;28;20222;-77
2023/03/21 08:54:20;;;;;;;15.52;8.70;;;;;;;15.23;46.55;63571.41;5028105;28;20202;-76
2023/03/21 08:56:47;;;;;;;16.13;8.60;;;;;;;15.38;46.08;63584.44;5027516;28;20244;-77
2023/03/21 08:59:14;;;;;;;17.40;9.45;;;;;;;15.46;45.84;63592.78;5023918;28;20258;-77
2023/03/21 09:01:43;;;;;;;12.70;8.27;;;;;;;15.68;45.24;63616.19;5027461;28;20240;-77
2023/03/21 09:04:10;;;;;;;10.07;8.00;;;;;;;15.83;44.26;63634.34;5015534;28;20375;-76
2023/03/21 09:06:39;;;;;;;17.55;8.55;;;;;;;16.03;43.51;63649.47;5021549;28;20273;-77
2023/03/21 09:09:08;;;;;;;14.68;8.18;;;;;;;15.89;43.47;63640.56;5024804;28;20499;-77
2023/03/21 09:11:35;;;;;;;14.18;7.28;;;;;;;16.04;43.71;63660.78;5024148;28;20214;-77
2023/03/21 09:14:02;;;;;;;14.38;8.10;;;;;;;16.02;44.21;63651.53;5023025;28;20419;-77
2023/03/21 09:16:29;;;;;;;10.55;7.43;;;;;;;15.91;44.82;63639.56;5023933;28;20225;-77
2023/03/21 09:18:58;;;;;;;11.32;7.80;;;;;;;16.12;44.11;63661.91;5027663;28;20202;-76
2023/03/21 09:21:26;;;;;;;10.30;6.68;;;;;;;16.06;44.17;63663.41;5025645;28;20292;-76
2023/03/21 09:23:57;;;;;;;9.43;7.82;;;;;;;16.25;43.53;63674.94;5022124;28;20510;-77
2023/03/21 09:26:25;;;;;;;15.93;7.47;;;;;;;16.51;42.99;63699.41;5022279;28;20297;-77
2023/03/21 09:28:52;;;;;;;12.48;7.10;;;;;;;16.77;42.07;63725.94;5024251;28;20208;-75
2023/03/21 09:31:21;;;;;;;11.45;7.35;;;;;;;16.83;41.86;63737.31;5021896;28;20534;-77
2023/03/21 09:33:48;;;;;;;13.65;6.97;;;;;;;17.01;40.73;63751.44;5022386;28;20248;-76
2023/03/21 09:36:20;;;;;;;14.05;7.78;;;;;;;16.45;41.38;63697.75;5010524;28;20204;-77
2023/03/21 09:38:48;;;;;;;11.30;7.85;;;;;;;16.28;42.17;63675.47;5013362;28;20214;-76
2023/03/21 09:41:26;;;;;;;12.63;8.00;;;;;;;16.03;42.99;63652.06;5023922;28;20241;-76
2023/03/21 09:44:06;;;;;;;10.60;6.78;;;;;;;15.98;43.08;63649.94;5024236;28;20210;-77
2023/03/21 09:46:41;;;;;;;17.38;8.27;;;;;;;16.28;42.40;63680.09;5024462;28;20225;-77
2023/03/21 09:49:15;;;;;;;10.68;8.00;;;;;;;16.62;41.69;63712.91;5023335;28;20204;-77
2023/03/21 09:51:49;;;;;;;14.13;7.97;;;;;;;16.66;42.27;63715.03;5023995;28;20225;-77
2023/03/21 09:54:21;;;;;;;11.20;8.23;;;;;;;16.20;42.11;63669.72;5021289;28;20207;-77
2023/03/21 09:56:52;;;;;;;17.30;8.70;;;;;;;16.52;41.07;63708.16;5024449;28;20274;-76
2023/03/21 09:59:25;;;;;;;12.65;7.53;;;;;;;16.57;41.42;63705.66;5025599;28;20202;-78
2023/03/21 10:01:54;;;;;;;9.10;7.28;;;;;;;16.70;40.87;63726.38;5022828;28;20241;-76
2023/03/21 10:04:23;;;;;;;11.32;7.88;;;;;;;16.81;40.52;63735.25;5022688;28;20202;-76
2023/03/21 10:06:58;;;;;;;16.20;8.02;;;;;;;16.81;40.43;63735.78;5024019;28;20593;-76
2023/03/21 10:09:27;;;;;;;16.10;8.13;;;;;;;16.86;41.40;63740.47;5024285;28;20375;-75
2023/03/21 10:11:59;;;;;;;13.55;8.02;;;;;;;16.78;40.27;63729.56;5024278;28;20225;-76
2023/03/21 10:14:30;;;;;;;16.85;8.85;;;;;;;16.84;40.71;63733.22;5004420;28;20491;-76
2023/03/21 10:16:59;;;;;;;13.13;7.82;;;;;;;16.83;40.34;63732.72;5029920;28;20287;-77
2023/03/21 10:19:28;;;;;;;12.15;7.78;;;;;;;17.14;38.85;63769.59;5019302;28;20244;-76
2023/03/21 10:21:57;;;;;;;11.15;7.88;;;;;;;17.34;38.25;63785.28;5027312;28;20229;-76
2023/03/21 10:24:27;;;;;;;9.32;6.43;;;;;;;17.57;37.55;63806.66;5022646;28;20220;-77
2023/03/21 10:26:55;;;;;;;16.60;7.18;;;;;;;17.91;37.27;63849.28;5024002;28;20602;-76
2023/03/21 10:29:27;;;;;;;8.10;6.25;;;;;;;17.62;36.67;63819.59;5008759;28;20265;-78
2023/03/21 10:31:55;;;;;;;11.88;8.35;;;;;;;17.49;38.27;63800.38;5008396;28;20419;-78
2023/03/21 10:34:30;;;;;;;12.35;7.80;;;;;;;16.90;39.39;63742.03;5023372;28;20209;-76
2023/03/21 10:36:59;;;;;;;14.90;7.07;;;;;;;16.83;39.17;63737.31;5022675;28;20229;-76
2023/03/21 10:39:31;;;;;;;10.77;6.97;;;;;;;17.11;38.72;63764.44;5029667;28;20201;-76
2023/03/21 10:41:58;;;;;;;7.90;7.03;;;;;;;17.33;38.33;63789.91;5022492;28;20234;-78
2023/03/21 10:44:30;;;;;;;12.90;7.07;;;;;;;17.34;40.05;63790.44;5023359;28;20514;-77
2023/03/21 10:46:59;;;;;;;9.82;8.00;;;;;;;17.83;39.52;63838.34;5023806;28;20225;-76
2023/03/21 10:49:26;;;;;;;12.52;8.38;;;;;;;17.66;38.15;63820.66;5024219;28;20190;-77
2023/03/21 10:51:56;;;;;;;13.82;8.30;;;;;;;17.84;38.34;63839.41;5023113;28;20240;-76
2023/03/21 10:54:30;;;;;;;10.27;7.70;;;;;;;17.88;39.33;63848.72;5023922;28;20217;-77
2023/03/21 10:57:00;;;;;;;14.95;10.90;;;;;;;17.88;38.48;63851.81;5025844;28;20218;-77
2023/03/21 10:59:35;;;;;;;16.77;8.23;;;;;;;18.00;37.89;63856.59;5022749;28;20259;-77
2023/03/21 11:02:05;;;;;;;12.55;8.73;;;;;;;17.97;37.69;63855.53;5023885;28;20389;-76
2023/03/21 11:04:32;;;;;;;11.68;7.22;;;;;;;18.16;37.92;63875.84;5022241;28;20202;-77
2023/03/21 11:07:05;;;;;;;16.00;6.97;;;;;;;18.59;37.69;63917.56;5022597;28;20276;-78
2023/03/21 11:09:46;;;;;;;9.85;7.28;;;;;;;18.72;36.47;63935.75;5022497;28;20198;-76
2023/03/21 11:12:15;;;;;;;11.90;7.82;;;;;;;18.61;36.60;63922.22;5023284;28;20433;-76
2023/03/21 11:14:44;;;;;;;10.90;7.10;;;;;;;18.87;36.91;63948.78;5027742;28;20241;-77
2023/03/21 11:17:22;;;;;;;7.20;6.30;;;;;;;18.87;35.74;63948.78;5025940;28;20519;-77
2023/03/21 11:19:50;;;;;;;8.02;6.47;;;;;;;18.31;35.84;63890.94;5009918;28;20217;-76
2023/03/21 11:22:20;;;;;;;8.65;7.00;;;;;;;18.15;36.72;63874.78;5026888;28;20233;-75
2023/03/21 11:24:51;;;;;;;8.40;6.93;;;;;;;18.06;36.96;63862.84;5029861;28;20432;-75
2023/03/21 11:27:19;;;;;;;7.78;6.32;;;;;;;18.17;36.19;63874.28;5026160;28;20301;-76
2023/03/21 11:29:48;;;;;;;10.57;7.50;;;;;;;18.20;35.80;63874.31;5027941;28;20203;-76
2023/03/21 11:32:22;;;;;;;11.32;7.40;;;;;;;18.25;36.29;63882.63;5027274;28;20222;-77
2023/03/21 11:34:52;;;;;;;12.02;6.18;;;;;;;17.86;34.89;63844.06;5027346;28;20198;-78
2023/03/21 11:37:21;;;;;;;8.10;5.00;;;;;;;17.86;34.69;63844.56;5027642;28;20236;-77
2023/03/21 11:39:55;;;;;;;6.68;6.00;;;;;;;17.84;35.85;63839.41;5031023;28;20198;-77
2023/03/21 11:42:30;;;;;;;14.98;7.18;;;;;;;18.06;36.23;63867.47;5028330;28;20276;-77
2023/03/21 11:45:04;;;;;;;8.00;6.43;;;;;;;18.32;36.92;63886.81;5018122;28;20209;-78